Nassau (NAS/MYNN)

Information

Location
Nassau, Bahamas
Local Time
00:59 / 12:59 am
GMT Time
05:59 / 5:59 am
Gates
15
No FAA reported delays
METAR MYNN 140500Z 00000KT CAVOK 18/13 A3006
TAF MYNN 132200Z 1400/1424 VRB02KT 9999 FEW025 BECMG 1406/1408 00000KT CAVOK